Ashland, Virginia
Current Conditions -  °F | °C
As of 10:54 AM on Tuesday 21 Oct 2014 (Local Time) from KOFP Reporting Station
Clear Clear  
Wind Chill: 64°   Ceiling: Unl
Heat Index: 64°   Visibility: 10mi
Dew Point: 51°   Wind: 5mph
Humidity: 63%   Direction: 240°WSW
Pressure: 29.89"   Gusts: NA
Location:  37.76°N, 77.48°W
Report Text: KOFP 211454Z AUTO 24004KT 10SM CLR 18/11 A2989 RMK AO2 SLP121 T01780106 58004
Loading
Personal Weather Stations






























Interactive Weather Map
Tropical Storm Tracking
New forecast layout! Learn more

10-Day Weather Forecast

Advertisements
Track Severe Weather on mobile